Arthur, TN

6:58 PM EST on December 15, 2019 (GMT -0500)
Tiprell | | Change Station

Elev 1335 ft 36.58 °N, 83.66 °W | Updated 3 minutes ago

Partly Cloudy
Partly Cloudy
45.3 °F
Feels Like 45 °F
N
0
Wind Variable Wind from SE
Gusts 1.0 mph

Today
High -- | Low -- °F
--% Chance of Precip.
Yesterday
High -- | Low -- °F
Precip. -- in
Pressure 30.06 in
Visibility 10.0 miles
Clouds Scattered Clouds 8000 ft
Scattered Clouds 12000 ft
Windchill 45 °F
Dew Point 37 °F
Humidity 73%
Rainfall 0.01 in
Snow Depth Not available.
7:39 AM 5:20 PM
Waning Gibbous, 83% visible
METAR K1A6 152335Z AUTO 00000KT 10SM SCT080 SCT120 08/04 A3006 RMK AO2 T00840038
Pressure 30.06 in
Visibility 10.0 miles
Clouds Scattered Clouds 8000 ft
Scattered Clouds 12000 ft
Windchill 45 °F
Dew Point 37 °F
Humidity 73%
Rainfall 0.01 in
Snow Depth Not available.
7:39 AM 5:20 PM
Waning Gibbous, 83% visible
METAR K1A6 152335Z AUTO 00000KT 10SM SCT080 SCT120 08/04 A3006 RMK AO2 T00840038

Get Severe Weather Alerts

Thanks for signing up!

Be on the lookout for a verification email in your inbox.

You'll start receiving the daily forecast at 6 AM.

×

10-Day Weather Forecast

Almanac

Astronomy

Dec. 15, 2019 Rise Set
Actual Time
Civil Twilight
Nautical Twilight
Astronomical Twilight
Moon
Length of Visible Light
Length of Day
Tomorrow will be .
, % of the Moon is Illuminated

Today's Extremes

State Highs State Lows

Community

WunderPhotos

Category 6

Welcome to Category 6. This is the collective home for Weather Underground's featured writeups by Dr. Jeff Masters (right), Bob Henson (left), Chris Burt, and other regular contributors.

Nearby

Air Quality

  Air Quality AQ Index Pollutant
Not available.

Snow Depth

Station Depth Elevation

Earthquake Activity

City Distance Mag. Time & Date
Minimum magnitude displayed is 2.5.

Coastal Water Temperatures

Place Temperature

Stations

Nearby Weather Stations

Station Location Temp. Windchill Dew Point Humidity Wind Precip. Elev Updated Type
                   

Watches & Warnings

There are currently no watches in effect.